Home > Products > Valid Products > TAF

000
FTUS42 KJAX 290500
TAFGNV
TAF
KGNV 290540Z 2906/3006 25009KT P6SM VCSH SCT020 SCT080 BKN150
      TEMPO 2906/2910 BKN020
     FM291300 27009KT P6SM VCSH SCT020 SCT045 BKN250
     FM291800 28010G18KT P6SM VCTS SCT035CB BKN250
     FM300000 25004KT P6SM SKC=



000
FTUS42 KJAX 290500
TAFSSI
TAF
KSSI 290540Z 2906/3006 26007KT P6SM FEW045 BKN250
     FM291400 29007KT P6SM FEW045 SCT250
     FM291900 17008KT P6SM FEW250
     FM292100 12008KT P6SM FEW250
     FM300000 15004KT P6SM SCT250=



000
FTUS42 KJAX 290500
TAFJAX
TAF
KJAX 290540Z 2906/3006 24007KT P6SM FEW040 BKN250
     FM291200 28008KT P6SM VCSH SCT030 BKN200
     FM291700 29007KT P6SM SCT050
     FM292300 VRB04KT P6SM FEW250=



000
FTUS42 KJAX 290500
TAFCRG
TAF
KCRG 290540Z 2906/3006 24007KT P6SM FEW040 BKN250
     FM291200 28007KT P6SM VCSH SCT030 BKN200
     FM291700 29007KT P6SM SCT050
      TEMPO 2920/2923 21005KT
     FM292300 13004KT P6SM FEW250=



000
FTUS42 KJAX 290200 AAC
TAFCRG
TAF AMD
KCRG 290239Z 2903/2924 25011KT P6SM VCSH SCT040 SCT250
     FM291200 28009KT P6SM SCT030 BKN250=



000
FTUS42 KJAX 290200 AAA
TAFJAX
TAF AMD
KJAX 290238Z 2903/2924 24010KT P6SM VCSH SCT040 BKN250
     FM290700 24007KT P6SM VCSH SCT030 BKN250
     FM291200 28009KT P6SM SCT030 BKN250=



000
FTUS42 KJAX 290000 AAA
TAFSSI
TAF AMD
KSSI 290057Z 2901/2924 24010KT P6SM VCSH SCT050 BKN250
     FM291000 28008KT P6SM FEW030 SCT250
     FM291400 30009KT P6SM SCT035 SCT250
     FM292200 18010KT P6SM FEW250=



000
FTUS42 KJAX 290000 AAB
TAFCRG
TAF AMD
KCRG 290057Z 2901/2924 25010G17KT P6SM SCT040 SCT250
     FM290300 24010KT P6SM VCTS BKN035CB BKN250
     FM290700 24007KT P6SM VCSH SCT030 BKN250
     FM291200 28009KT P6SM SCT030 BKN250=



000
FTUS42 KJAX 290000 AAA
TAFJAX
TAF AMD
KJAX 290057Z 2901/2924 23010G17KT P6SM SCT040 SCT250
     FM290300 24010KT P6SM VCTS BKN035CB BKN250
     FM290700 24007KT P6SM VCSH SCT030 BKN250
     FM291200 28009KT P6SM SCT030 BKN250=



000
FTUS42 KJAX 282300 AAA
TAFCRG
TAF AMD
KCRG 282357Z 2900/2924 25010G17KT P6SM SCT040 SCT250
     FM290300 24010KT P6SM VCTS BKN035CB BKN250
      TEMPO 2903/2907 4SM -TSRA BKN030CB
     FM290700 24007KT P6SM VCSH SCT030 BKN250
     FM291200 28009KT P6SM SCT030 BKN250=



000
FTUS42 KJAX 282300
TAFSSI
TAF
KSSI 282320Z 2900/2924 24011G17KT P6SM VCTS SCT050CB BKN250
      TEMPO 2901/2905 VRB20G30KT 3SM TSRA BKN035CB
     FM290500 25010KT P6SM VCSH SCT030 BKN250
     FM291000 28008KT P6SM FEW030 SCT250
     FM291400 30009KT P6SM SCT035 SCT250
     FM292200 18010KT P6SM FEW250=



000
FTUS42 KJAX 282300
TAFCRG
TAF
KCRG 282320Z 2900/2924 23010G17KT P6SM SCT040 SCT250
     FM290300 24010KT P6SM VCTS BKN035CB BKN250
      TEMPO 2903/2907 4SM -TSRA BKN030CB
     FM290700 24007KT P6SM VCSH SCT030 BKN250
     FM291200 28009KT P6SM SCT030 BKN250=



000
FTUS42 KJAX 282300
TAFGNV
TAF
KGNV 282320Z 2900/2924 25012G20KT P6SM SCT040 SCT250
     FM290500 24010KT P6SM VCTS BKN035CB BKN250
      TEMPO 2905/2909 5SM -TSRA BKN030CB
     FM290900 24007KT P6SM VCSH SCT030 BKN250
     FM291300 27009KT P6SM SCT030 BKN250
     FM291800 28010G18KT P6SM VCTS SCT035CB BKN250=



000
FTUS42 KJAX 282300
TAFJAX
TAF
KJAX 282320Z 2900/2924 23010G17KT P6SM SCT040 SCT250
     FM290300 24010KT P6SM VCTS BKN035CB BKN250
      TEMPO 2903/2907 4SM -TSRA BKN030CB
     FM290700 24007KT P6SM VCSH SCT030 BKN250
     FM291200 28009KT P6SM SCT030 BKN250=



000
FTUS42 KJAX 282200 AAA
TAFSSI
TAF AMD
KSSI 282203Z 2822/2918 25009G17KT P6SM SCT050 SCT250
     FM290000 24011G18KT P6SM VCTS SCT050CB BKN250
      TEMPO 2901/2905 VRB20G30KT 3SM TSRA BKN035CB
     FM290500 25010KT P6SM VCSH SCT030 BKN250
     FM291000 28008KT P6SM FEW030 SCT250
     FM291400 30009KT P6SM SCT035 SCT250=



000
FTUS42 KJAX 282200 AAB
TAFJAX
TAF AMD
KJAX 282203Z 2822/2918 23010G17KT P6SM SCT040 SCT250
     FM290300 24010KT P6SM VCTS BKN035CB BKN250
      TEMPO 2903/2907 5SM -TSRA BKN030CB
     FM290700 24007KT P6SM VCSH SCT030 BKN250
     FM291200 28009KT P6SM SCT030 BKN250=



000
FTUS42 KJAX 282200 AAC
TAFGNV
TAF AMD
KGNV 282201Z 2822/2918 26011G20KT P6SM SCT040 SCT250
     FM290000 25010KT P6SM SCT040 SCT250
     FM290500 24010KT P6SM VCTS BKN035CB BKN250
      TEMPO 2905/2909 5SM -TSRA BKN030CB
     FM290900 24007KT P6SM VCSH SCT030 BKN250
     FM291300 27009KT P6SM SCT030 BKN250
     FM291700 28010G18KT P6SM VCTS SCT035CB BKN250=



000
FTUS42 KJAX 282200 AAC
TAFCRG
TAF AMD
KCRG 282200Z 2822/2918 23010KT P6SM SCT040 SCT250
     FM290300 24010KT P6SM VCTS BKN035CB BKN250
      TEMPO 2903/2907 5SM -TSRA BKN030CB
     FM290700 24007KT P6SM VCSH SCT030 BKN250
     FM291200 28009KT P6SM SCT030 BKN250=



000
FTUS42 KJAX 282100 AAB
TAFGNV
TAF AMD
KGNV 282108Z 2821/2918 25014G20KT P6SM VCSH SCT040 SCT250
     FM290200 25008KT P6SM VCSH FEW015 BKN035 BKN250
     FM290700 27005KT 5SM BR VCSH SCT010 SCT250
     FM291300 29010KT P6SM VCSH SCT015 SCT080 SCT250=



000
FTUS42 KJAX 282100 AAB
TAFCRG
TAF AMD
KCRG 282107Z 2821/2918 23010G17KT P6SM VCTS SCT040CB
      TEMPO 2822/2823 4SM TSRA BKN030CB
     FM282300 24008KT P6SM VCSH SCT040
     FM290200 25008KT P6SM VCSH FEW015 BKN035 BKN250
     FM291300 29010KT P6SM VCSH SCT015 SCT080 SCT250=



000
FTUS42 KJAX 282100 AAA
TAFJAX
TAF AMD
KJAX 282105Z 2821/2918 22010G17KT P6SM VCTS BKN040CB
     FM282300 23008KT P6SM VCSH SCT040
     FM290200 25008KT P6SM VCSH FEW015 BKN035 BKN250
     FM291300 29010KT P6SM VCSH SCT015 SCT080 SCT250=



000
FTUS42 KJAX 281800 AAA
TAFGNV
TAF AMD
KGNV 281847Z 2819/2918 27012G18KT P6SM VCTS SCT040CB SCT250
      TEMPO 2819/2822 VRB15G30KT 5SM TSRA BKN030CB
     FM290200 25008KT P6SM VCSH FEW015 BKN035 BKN250
     FM290700 27005KT 5SM BR VCSH SCT010 SCT250
     FM291300 29010KT P6SM VCSH SCT015 SCT080 SCT250=



000
FTUS42 KJAX 281800 AAA
TAFCRG
TAF AMD
KCRG 281845Z 2819/2918 26010G16KT P6SM VCSH SCT035 BKN250
      TEMPO 2819/2823 VRB15G30KT 4SM TSRA BKN030CB
     FM290200 25008KT P6SM VCSH FEW015 BKN035 BKN250
     FM291300 29010KT P6SM VCSH SCT015 SCT080 SCT250=



000
FTUS42 KJAX 281700
TAFGNV
TAF
KGNV 281733Z 2818/2918 27012G18KT P6SM VCSH SCT035 SCT250
      TEMPO 2818/2822 VRB15G25KT 5SM SHRA BKN030
     FM290200 25008KT P6SM VCSH FEW015 BKN035 BKN250
     FM290700 27005KT 5SM BR VCSH SCT010 SCT250
     FM291300 29010KT P6SM VCSH SCT015 SCT080 SCT250=



000
FTUS42 KJAX 281700
TAFCRG
TAF
KCRG 281733Z 2818/2918 27011G18KT P6SM SCT035 SCT250
     FM281900 26010G16KT P6SM VCSH BKN035 BKN250
      TEMPO 2819/2823 VRB15G25KT 5SM SHRA BKN030
     FM290200 25008KT P6SM VCSH FEW015 BKN035 BKN250
     FM291300 29010KT P6SM VCSH SCT015 SCT080 SCT250=



000
FTUS42 KJAX 281700
TAFSSI
TAF
KSSI 281733Z 2818/2918 25011G16KT P6SM SCT040 SCT250
     FM282000 24012G18KT P6SM VCSH SCT035 BKN250
     FM282200 22011KT P6SM VCTS SCT030CB BKN250
     FM290300 25008KT P6SM VCSH SCT030 BKN200
     FM291300 29010KT P6SM VCSH SCT015 SCT080 SCT250=



000
FTUS42 KJAX 281700
TAFJAX
TAF
KJAX 281733Z 2818/2918 27011G18KT P6SM SCT035 SCT250
     FM281900 26010G16KT P6SM VCSH BKN035 BKN250
      TEMPO 2819/2823 VRB15G25KT 5SM SHRA BKN030
     FM290200 25008KT P6SM VCSH FEW015 BKN035 BKN250
     FM291300 29010KT P6SM VCSH SCT015 SCT080 SCT250=



000
FTUS42 KJAX 281600 AAB
TAFGNV
TAF AMD
KGNV 281600Z 2816/2912 26010G18KT P6SM VCSH SCT035 SCT250
      TEMPO 2816/2819 VRB15G25KT 4SM SHRA BKN030
     FM290200 25010KT P6SM SCT030 BKN250=



000
FTUS42 KJAX 281500 AAB
TAFJAX
TAF AMD
KJAX 281554Z 2816/2912 25011G18KT P6SM SCT025 BKN250
     FM281800 26012G18KT P6SM VCSH SCT030 SCT250
     FM290200 25009KT P6SM VCSH SCT030 BKN200=



000
FTUS42 KJAX 281300 AAA
TAFSSI
TAF AMD
KSSI 281353Z 2814/2912 26011G16KT P6SM SCT250
     FM282000 24012G18KT P6SM VCSH SCT035 BKN250
     FM282200 22011KT P6SM VCTS SCT030CB BKN250
     FM290300 25008KT P6SM VCSH SCT030 BKN200=



000
FTUS42 KJAX 281300 AAA
TAFJAX
TAF AMD
KJAX 281341Z 2814/2912 25011KT P6SM SCT010 SCT250
      TEMPO 2814/2816 BKN010
     FM281800 26012G18KT P6SM VCSH SCT030 SCT250
     FM290200 25009KT P6SM VCSH SCT030 BKN200=



000
FTUS42 KJAX 281300 AAA
TAFCRG
TAF AMD
KCRG 281339Z 2814/2912 25011KT P6SM SCT010 SCT030 SCT250
      TEMPO 2814/2816 BKN010
     FM282000 26012G18KT P6SM VCSH SCT035 SCT250
     FM290200 25009KT P6SM VCSH SCT030 BKN200=



000
FTUS42 KJAX 281300 AAA
TAFGNV
TAF AMD
KGNV 281338Z 2814/2912 26010G20KT P6SM SCT030 SCT250
     FM281500 26010G18KT P6SM VCSH SCT030 SCT250
      TEMPO 2815/2819 VRB15G25KT 4SM SHRA BKN030
     FM290200 25010KT P6SM SCT030 BKN250=



000
FTUS42 KJAX 281100
TAFCRG
TAF
KCRG 281120Z 2812/2912 26008KT P6SM SCT250
     FM281400 25011KT P6SM SCT030 SCT250
     FM282200 26012G18KT P6SM VCTS BKN035CB BKN250
     FM290200 25009KT P6SM VCSH SCT030 BKN200=



000
FTUS42 KJAX 281100
TAFGNV
TAF
KGNV 281120Z 2812/2912 26007KT P6SM SCT250
     FM281400 25010KT P6SM SCT030 SCT250
     FM282200 26012G18KT P6SM VCSH BKN035 BKN250
     FM290200 25010KT P6SM SCT030 BKN250=



000
FTUS42 KJAX 281100
TAFJAX
TAF
KJAX 281120Z 2812/2912 25008KT P6SM SCT250
     FM281400 25011KT P6SM SCT030 SCT250
     FM282200 26012G18KT P6SM VCTS BKN035CB BKN250
     FM290200 25009KT P6SM VCSH SCT030 BKN200=



000
FTUS42 KJAX 281100
TAFSSI
TAF
KSSI 281120Z 2812/2912 23009KT P6SM SCT250
     FM281300 25011G16KT P6SM SCT030 SCT250
     FM282000 24012G18KT P6SM VCTS BKN035CB BKN250
     FM290300 25008KT P6SM VCSH SCT030 BKN200=



000
FTUS42 KJAX 280500
TAFSSI
TAF
KSSI 280538Z 2806/2906 23009KT P6SM SCT250
     FM281300 25011G16KT P6SM SCT030 SCT250
     FM282000 24012G18KT P6SM VCTS BKN035CB BKN250
     FM290300 25008KT P6SM SCT030 BKN250=



000
FTUS42 KJAX 280500
TAFCRG
TAF
KCRG 280538Z 2806/2906 24008KT P6SM SCT250
     FM281400 25011KT P6SM SCT030 SCT250
     FM282200 26012G18KT P6SM VCTS BKN035CB BKN250
     FM290200 25009KT P6SM SCT030 BKN250=



000
FTUS42 KJAX 280500
TAFGNV
TAF
KGNV 280538Z 2806/2906 26007KT P6SM SCT250
     FM281400 25010KT P6SM SCT030 SCT250
     FM282200 26012G18KT P6SM VCSH BKN035 BKN250
     FM290200 25010KT P6SM SCT030 BKN250=



000
FTUS42 KJAX 280500
TAFJAX
TAF
KJAX 280538Z 2806/2906 24007KT P6SM SCT250
     FM281400 25011KT P6SM SCT030 SCT250
     FM282200 26012G18KT P6SM VCTS BKN035CB BKN250
     FM290200 25009KT P6SM SCT030 BKN250=



000
FTUS42 KJAX 272300
TAFCRG
TAF
KCRG 272330Z 2800/2824 26007KT P6SM SCT250
     FM281400 25011G16KT P6SM SCT030 SCT250
     FM282200 26012G20KT P6SM VCTS BKN035CB BKN250
      TEMPO 2822/2824 3SM -TSRA OVC030CB=



000
FTUS42 KJAX 272300
TAFJAX
TAF
KJAX 272330Z 2800/2824 24007KT P6SM SCT250
     FM281400 25011G16KT P6SM SCT030 SCT250
     FM282200 26012G20KT P6SM VCTS BKN035CB BKN250
      TEMPO 2822/2824 3SM -TSRA OVC030CB=



000
FTUS42 KJAX 272300
TAFGNV
TAF
KGNV 272330Z 2800/2824 26012KT P6SM SCT250
     FM281400 25011G18KT P6SM SCT030 SCT250
     FM282200 26012G20KT P6SM BKN035 BKN250=



000
FTUS42 KJAX 272300
TAFSSI
TAF
KSSI 272330Z 2800/2824 24008KT P6SM SCT250
     FM281300 25011G18KT P6SM SCT030 SCT250
     FM282000 24012G22KT P6SM VCTS BKN035CB BKN250
      TEMPO 2820/2824 VRB20G30KT 2SM -TSRA OVC025CB=



000
FTUS42 KJAX 272100 AAC
TAFGNV
TAF AMD
KGNV 272102Z 2721/2818 24012G21KT P6SM FEW045 SCT250
     FM280000 24010KT P6SM FEW040 SCT250
     FM281400 25011G18KT P6SM SCT030 SCT250=



000
FTUS42 KJAX 272100 AAA
TAFSSI
TAF AMD
KSSI 272101Z 2721/2818 23009KT P6SM FEW040 SCT250
     FM281300 25011G18KT P6SM SCT030 SCT250=



000
FTUS42 KJAX 271800 AAB
TAFGNV
TAF AMD
KGNV 271840Z 2719/2818 26011KT P6SM VCSH SCT040 SCT250
      TEMPO 2719/2721 VRB10G20KT SHRA BKN030
     FM280000 25008KT P6SM SCT040 SCT250
     FM281400 24011G16KT P6SM FEW020 SCT250=



000
FTUS42 KJAX 271800 AAA
TAFGNV
TAF AMD
KGNV 271827Z 2718/2818 26011KT P6SM VCSH SCT040 SCT250
      TEMPO 2718/2721 VRB10G20KT SHRA BKN030
     FM280000 25008KT P6SM SCT040 SCT250
     FM281400 24011G16KT P6SM FEW020 SCT250=



000
FTUS42 KJAX 271800 AAA
TAFCRG
TAF AMD
KCRG 271827Z 2718/2818 27011KT P6SM SCT040 SCT250
     FM280000 22008KT P6SM FEW050 SCT250
     FM281400 24012G18KT P6SM SCT030 SCT250=



000
FTUS42 KJAX 271800 AAA
TAFJAX
TAF AMD
KJAX 271826Z 2718/2818 26011KT P6SM SCT040 SCT250
     FM280000 22007KT P6SM FEW040 SCT250
     FM281400 25011G16KT P6SM SCT030 SCT250=



000
FTUS42 KJAX 271700
TAFSSI
TAF
KSSI 271720Z 2718/2818 26011KT P6SM SCT035 SCT250
     FM272100 20010KT P6SM SCT040 SCT250
     FM280400 23011KT P6SM FEW030 SCT250
     FM281400 25012G20KT P6SM SCT030 SCT250=



000
FTUS42 KJAX 271700
TAFJAX
TAF
KJAX 271720Z 2718/2818 24009G16KT P6SM SCT035 SCT250
     FM280000 22007KT P6SM FEW035 SCT250
     FM281400 25011G16KT P6SM SCT030 SCT250=



000
FTUS42 KJAX 271700
TAFCRG
TAF
KCRG 271720Z 2718/2818 25008G16KT P6SM SCT040 SCT250
     FM280000 22008KT P6SM SCT050 SCT250
     FM281400 24012G18KT P6SM SCT030 SCT250=



000
FTUS42 KJAX 271700
TAFGNV
TAF
KGNV 271720Z 2718/2818 26008KT P6SM VCSH SCT040 SCT250
      TEMPO 2718/2721 VRB10G20KT SHRA BKN030
     FM280000 25008KT P6SM SCT040 SCT250
     FM281400 24011G16KT P6SM FEW020 SCT250=



000
FTUS42 KJAX 271600 AAB
TAFGNV
TAF AMD
KGNV 271646Z 2717/2812 26010KT P6SM VCSH SCT025 SCT250
      TEMPO 2717/2721 VRB10G20KT SHRA BKN025
     FM272100 26010KT P6SM VCSH SCT030 SCT250
     FM280000 24008KT P6SM SCT040 SCT250=



000
FTUS42 KJAX 271400 AAA
TAFGNV
TAF AMD
KGNV 271456Z 2715/2812 26008KT P6SM VCSH SCT025 SCT250
      TEMPO 2715/2718 VRB10G20KT 5SM SHRA BKN020
     FM271800 26010KT P6SM VCSH SCT040 SCT250
     FM280000 24008KT P6SM SCT040 SCT250=



000
FTUS42 KJAX 271100
TAFCRG
TAF
KCRG 271120Z 2712/2812 24007KT P6SM SCT250
     FM271400 25009KT P6SM SCT025 SCT250
     FM271800 25008KT P6SM SCT040 SCT250
     FM280000 21007KT P6SM SCT050 SCT250=



000
FTUS42 KJAX 271100
TAFGNV
TAF
KGNV 271120Z 2712/2812 26004KT P6SM FEW020 SCT250
     FM271400 26008KT P6SM SCT025 SCT250
     FM271800 26010KT P6SM VCSH SCT040 SCT250
     FM280000 24008KT P6SM SCT040 SCT250=



000
FTUS42 KJAX 271100
TAFJAX
TAF
KJAX 271120Z 2712/2812 24006KT P6SM SCT250
     FM271400 25009KT P6SM SCT025 SCT250
     FM271800 25009KT P6SM SCT040 SCT250
     FM280000 22007KT P6SM SCT050 SCT250=



000
FTUS42 KJAX 271100
TAFSSI
TAF
KSSI 271120Z 2712/2812 25008KT P6SM SCT250
     FM271400 25009KT P6SM SCT030 SCT250
     FM272100 19009KT P6SM SCT040 SCT250
     FM280400 23010KT P6SM FEW040 SCT250=



000
FTUS42 KJAX 270500
TAFCRG
TAF
KCRG 270535Z 2706/2806 22004KT P6SM SCT250
     FM271400 25009KT P6SM SCT025 SCT250
     FM271800 25008KT P6SM SCT040 SCT250
     FM280000 21007KT P6SM SCT050 SCT250=



000
FTUS42 KJAX 270500
TAFSSI
TAF
KSSI 270535Z 2706/2806 24006KT P6SM SCT250
     FM271400 25008KT P6SM SCT030 SCT250
     FM272100 19009KT P6SM SCT040 SCT250=



000
FTUS42 KJAX 270500
TAFJAX
TAF
KJAX 270535Z 2706/2806 24004KT P6SM SCT250
     FM271400 25009KT P6SM SCT025 SCT250
     FM271800 25009KT P6SM SCT040 SCT250
     FM280000 22007KT P6SM SCT050 SCT250=



000
FTUS42 KJAX 270500
TAFGNV
TAF
KGNV 270535Z 2706/2806 26004KT P6SM SCT250
      TEMPO 2710/2712 4SM BR
     FM271400 26008KT P6SM SCT025 SCT250
     FM271800 26010KT P6SM VCSH SCT040 SCT250
     FM280000 24008KT P6SM SCT040 SCT250=



000
FTUS42 KJAX 262300 AAA
TAFSSI
TAF AMD
KSSI 262356Z 2700/2724 17006KT P6SM VCTS SCT045CB SCT250
     FM270130 19006KT P6SM SCT250
     FM271400 25007KT P6SM SCT025 SCT250
     FM272100 21008KT P6SM SCT035 BKN250=



000
FTUS42 KJAX 262300
TAFCRG
TAF
KCRG 262332Z 2700/2724 20004KT P6SM SCT250
     FM271400 25009KT P6SM SCT025 SCT250
     FM272200 25008KT P6SM VCTS SCT035CB BKN250=



000
FTUS42 KJAX 262300
TAFJAX
TAF
KJAX 262332Z 2700/2724 20004KT P6SM SCT250
     FM271400 25009KT P6SM SCT025 SCT250
     FM272200 25008KT P6SM VCTS SCT035CB BKN250=



000
FTUS42 KJAX 262300
TAFGNV
TAF
KGNV 262332Z 2700/2724 26004KT P6SM SCT250
      TEMPO 2710/2712 4SM BR
     FM271400 26010KT P6SM SCT025 SCT250
     FM271800 26010G17KT P6SM VCTS SCT035CB BKN250=



000
FTUS42 KJAX 262300
TAFSSI
TAF
KSSI 262332Z 2700/2724 19006KT P6SM SCT250
     FM271400 25007KT P6SM SCT025 SCT250
     FM272100 21008KT P6SM SCT035 BKN250=



000
FTUS42 KJAX 262200 AAB
TAFGNV
TAF AMD
KGNV 262208Z 2622/2718 30004KT P6SM VCTS SCT035CB BKN050
     FM262300 24004KT P6SM FEW030 SCT250=



000
FTUS42 KJAX 262000 AAB
TAFCRG
TAF AMD
KCRG 262009Z 2620/2718 24010KT P6SM VCTS SCT035CB BKN070
      TEMPO 2620/2622 VRB12G22KT 4SM TSRA BKN025CB
     FM270000 24004KT P6SM FEW030 SCT250=



000
FTUS42 KJAX 262000 AAA
TAFJAX
TAF AMD
KJAX 262008Z 2620/2718 23010KT P6SM VCTS SCT035CB BKN070
      TEMPO 2620/2622 VRB12G22KT 4SM TSRA BKN035CB
     FM270000 24004KT P6SM FEW030 SCT250=



000
FTUS42 KJAX 261900 AAA
TAFCRG
TAF AMD
KCRG 261913Z 2619/2718 24010KT P6SM VCTS SCT035CB BKN070
      TEMPO 2619/2621 VRB20G40KT 2SM TSRA BKN025CB
     FM270000 24004KT P6SM FEW030 SCT250=



000
FTUS42 KJAX 261900 AAA
TAFGNV
TAF AMD
KGNV 261901Z 2619/2718 30010KT P6SM VCTS SCT035CB BKN070
      TEMPO 2619/2621 VRB15G25KT 4SM -TSRA BKN035CB
     FM262200 24004KT P6SM FEW030 SCT250=



000
FTUS42 KJAX 261700
TAFSSI
TAF
KSSI 261720Z 2618/2718 22008KT P6SM VCTS SCT035CB BKN070
      TEMPO 2618/2619 VRB15G25KT 4SM TSRA BKN025CB
     FM270000 22006KT P6SM FEW030 SCT250=



000
FTUS42 KJAX 261700
TAFCRG
TAF
KCRG 261720Z 2618/2718 24010KT P6SM VCTS SCT035CB BKN070
      TEMPO 2619/2621 VRB15G25KT 4SM TSRA BKN025CB
     FM270000 24004KT P6SM FEW030 SCT250=



000
FTUS42 KJAX 261700
TAFGNV
TAF
KGNV 261720Z 2618/2718 25012KT P6SM VCTS SCT035CB BKN070
     FM262200 24004KT P6SM FEW030 SCT250=



000
FTUS42 KJAX 261700
TAFJAX
TAF
KJAX 261720Z 2618/2718 24010KT P6SM VCTS SCT035CB BKN070
      TEMPO 2618/2620 VRB15G25KT 4SM TSRA BKN025CB
     FM270000 24004KT P6SM FEW030 SCT250=



000
FTUS42 KJAX 261500 AAA
TAFSSI
TAF AMD
KSSI 261514Z 2615/2712 24008KT P6SM VCSH BKN030
     FM261600 23008KT P6SM VCTS SCT035CB BKN070
      TEMPO 2616/2618 VRB15G25KT 3SM TSRA BKN030CB
     FM270100 21007KT P6SM SCT035 SCT080 BKN250=



000
FTUS42 KJAX 261200 AAB
TAFJAX
TAF AMD
KJAX 261232Z 2613/2712 24006KT P6SM VCSH SCT030
     FM261700 25008KT P6SM VCTS SCT040CB BKN250
     FM270100 22004KT P6SM SCT040 SCT080 BKN250=



000
FTUS42 KJAX 261100 AAA
TAFJAX
TAF AMD
KJAX 261125Z 2611/2712 24004KT P6SM VCSH SCT030
      TEMPO 2612/2613 VRB15G25KT 4SM SHRA BKN030
     FM261700 25008KT P6SM VCTS SCT040CB BKN250
     FM270100 22004KT P6SM SCT040 SCT080 BKN250=



000
FTUS42 KJAX 261100
TAFJAX
TAF
KJAX 261120Z 2612/2712 24004KT P6SM FEW025 SCT250
     FM261700 25008KT P6SM VCTS SCT040CB BKN250
     FM270100 22004KT P6SM SCT040 SCT080 BKN250=



000
FTUS42 KJAX 261100
TAFGNV
TAF
KGNV 261120Z 2612/2712 24004KT P6SM FEW025 BKN250
     FM261500 25008KT P6SM VCTS SCT030CB BKN250
     FM262300 25008KT P6SM SCT040 SCT080 BKN250=



000
FTUS42 KJAX 261100
TAFSSI
TAF
KSSI 261120Z 2612/2712 24008KT P6SM FEW025 BKN250
     FM261700 19009KT P6SM VCTS SCT030CB BKN250
     FM270100 21007KT P6SM SCT035 SCT080 BKN250=



000
FTUS42 KJAX 261100
TAFCRG
TAF
KCRG 261120Z 2612/2712 24004KT P6SM FEW025 BKN250
     FM261700 23008KT P6SM VCTS SCT040CB
     FM270100 21004KT P6SM SCT040 SCT080 BKN250=



    US Dept of Commerce
    National Oceanic and Atmospheric Administration
    National Weather Service
    1325 East West Highway
    Silver Spring, MD 20910
    Page Author: NWS Internet Services Team
Disclaimer
Information Quality
Credits
Glossary
Privacy Policy
Freedom of Information Act (FOIA)
About Us
Career Opportunities